Time;durP1;ratioP1;P1;durP2;ratioP2;P2;SDS_P1;SDS_P2;PMS_P1;PMS_P2;Temp;Humidity;BMP_temperature;BMP_pressure;BME280_temperature;BME280_humidity;BME280_pressure;Samples;Min_cycle;Max_cycle;Signal;HPM_P1;HPM_P2
2022/01/07 00:02:04;;;;;;;2.72;2.53;;;;;;;;;;5039026;28;20260;-53
2022/01/07 00:04:35;;;;;;;2.60;2.40;;;;;;;;;;5038879;28;20202;-53
2022/01/07 00:07:03;;;;;;;2.67;2.47;;;;;;;;;;5039341;28;20597;-53
2022/01/07 00:09:30;;;;;;;2.70;2.50;;;;;;;;;;5029036;28;20202;-53
2022/01/07 00:11:59;;;;;;;2.80;2.45;;;;;;;;;;5019490;28;20210;-53
2022/01/07 00:14:27;;;;;;;2.80;2.60;;;;;;;;;;5019446;28;20214;-53
2022/01/07 00:16:54;;;;;;;2.60;2.40;;;;;;;;;;5019675;28;20226;-53
2022/01/07 00:19:22;;;;;;;2.40;2.20;;;;;;;;;;5019503;28;20213;-53
2022/01/07 00:21:49;;;;;;;2.40;2.20;;;;;;;;;;5019631;28;20333;-53
2022/01/07 00:24:17;;;;;;;2.47;2.28;;;;;;;;;;5018673;28;20214;-53
2022/01/07 00:26:44;;;;;;;2.70;2.50;;;;;;;;;;5019444;28;20203;-52
2022/01/07 00:29:13;;;;;;;2.17;1.98;;;;;;;;;;5019348;28;20206;-52
2022/01/07 00:31:40;;;;;;;2.35;2.15;;;;;;;;;;5019717;28;20237;-53
2022/01/07 00:34:08;;;;;;;2.60;2.40;;;;;;;;;;5018801;28;20206;-53
2022/01/07 00:36:35;;;;;;;2.50;2.30;;;;;;;;;;5019339;28;20534;-53
2022/01/07 00:39:02;;;;;;;2.38;2.17;;;;;;;;;;5019267;28;20222;-53
2022/01/07 00:41:30;;;;;;;2.38;2.17;;;;;;;;;;5019811;28;20272;-53
2022/01/07 00:43:57;;;;;;;2.50;2.30;;;;;;;;;;5019565;28;20309;-53
2022/01/07 00:46:26;;;;;;;2.50;2.30;;;;;;;;;;5019528;28;20206;-53
2022/01/07 00:48:53;;;;;;;2.20;2.10;;;;;;;;;;5019107;28;20587;-53
2022/01/07 00:51:21;;;;;;;2.33;2.13;;;;;;;;;;5019381;28;20214;-53
2022/01/07 00:53:48;;;;;;;2.47;2.00;;;;;;;;;;5019168;28;20206;-53
2022/01/07 00:56:16;;;;;;;2.40;2.20;;;;;;;;;;5019050;28;20479;-53
2022/01/07 00:58:43;;;;;;;2.30;2.03;;;;;;;;;;5019068;28;20222;-53
2022/01/07 01:01:10;;;;;;;2.15;2.05;;;;;;;;;;5018696;28;20231;-53
2022/01/07 01:03:39;;;;;;;2.22;2.03;;;;;;;;;;5019055;28;20217;-53
2022/01/07 01:06:06;;;;;;;2.45;2.22;;;;;;;;;;5018919;28;20203;-53
2022/01/07 01:08:34;;;;;;;2.30;2.10;;;;;;;;;;5018407;28;20499;-53
2022/01/07 01:11:02;;;;;;;2.10;1.90;;;;;;;;;;5018641;28;20214;-53
2022/01/07 01:13:31;;;;;;;2.58;2.10;;;;;;;;;;5021488;28;20197;-53
2022/01/07 01:15:58;;;;;;;2.20;2.00;;;;;;;;;;5037662;28;20320;-53
2022/01/07 01:18:26;;;;;;;2.05;1.90;;;;;;;;;;5037980;28;20215;-53
2022/01/07 01:20:56;;;;;;;1.90;1.80;;;;;;;;;;5038532;28;20206;-53
2022/01/07 01:23:23;;;;;;;2.00;1.90;;;;;;;;;;5037800;28;20212;-53
2022/01/07 01:25:51;;;;;;;1.95;1.85;;;;;;;;;;5038535;28;20201;-53
2022/01/07 01:28:18;;;;;;;2.38;2.17;;;;;;;;;;5037868;28;20216;-53
2022/01/07 01:30:46;;;;;;;2.17;1.98;;;;;;;;;;5037409;28;20222;-53
2022/01/07 01:33:13;;;;;;;2.30;2.10;;;;;;;;;;5037686;28;20206;-53
2022/01/07 01:35:40;;;;;;;2.20;2.00;;;;;;;;;;5037867;28;20240;-53
2022/01/07 01:38:09;;;;;;;2.20;2.00;;;;;;;;;;5024555;28;20496;-53
2022/01/07 01:40:36;;;;;;;2.22;2.03;;;;;;;;;;5018346;28;20214;-53
2022/01/07 01:43:04;;;;;;;2.28;2.08;;;;;;;;;;5017773;28;20214;-53
2022/01/07 01:45:31;;;;;;;2.00;1.90;;;;;;;;;;5017639;28;20586;-53
2022/01/07 01:47:58;;;;;;;2.20;2.00;;;;;;;;;;5018308;28;20214;-53
2022/01/07 01:50:26;;;;;;;2.10;1.95;;;;;;;;;;5035936;28;20578;-53
2022/01/07 01:52:55;;;;;;;2.10;1.90;;;;;;;;;;5037251;28;20236;-53
2022/01/07 01:55:25;;;;;;;2.10;1.90;;;;;;;;;;5037554;28;20205;-53
2022/01/07 01:57:53;;;;;;;2.13;1.92;;;;;;;;;;5033642;28;20603;-53
2022/01/07 02:00:21;;;;;;;2.13;1.92;;;;;;;;;;5017767;28;20210;-53
2022/01/07 02:02:49;;;;;;;2.40;2.20;;;;;;;;;;5017360;28;20513;-53
2022/01/07 02:05:16;;;;;;;2.38;2.17;;;;;;;;;;5017610;28;20210;-53
2022/01/07 02:07:43;;;;;;;2.25;2.05;;;;;;;;;;5017561;28;20206;-53
2022/01/07 02:10:12;;;;;;;2.35;2.15;;;;;;;;;;5036524;28;20208;-53
2022/01/07 02:12:41;;;;;;;2.20;2.00;;;;;;;;;;5036851;28;20206;-53
2022/01/07 02:15:09;;;;;;;2.10;1.90;;;;;;;;;;5037263;28;20205;-54
2022/01/07 02:17:36;;;;;;;2.30;2.10;;;;;;;;;;5037302;28;20225;-53
2022/01/07 02:20:07;;;;;;;2.03;1.83;;;;;;;;;;5023256;28;20231;-53
2022/01/07 02:22:34;;;;;;;2.05;1.90;;;;;;;;;;5017247;28;20475;-53
2022/01/07 02:25:01;;;;;;;2.03;1.80;;;;;;;;;;5017589;28;20202;-53
2022/01/07 02:27:29;;;;;;;1.92;1.73;;;;;;;;;;5016580;28;20230;-53
2022/01/07 02:29:56;;;;;;;2.28;2.08;;;;;;;;;;5027947;28;20205;-53
2022/01/07 02:32:24;;;;;;;2.00;1.90;;;;;;;;;;5016775;28;20202;-53
2022/01/07 02:34:51;;;;;;;1.85;1.75;;;;;;;;;;5017620;28;20487;-53
2022/01/07 02:37:20;;;;;;;1.85;1.70;;;;;;;;;;5017007;28;20261;-53
2022/01/07 02:39:49;;;;;;;2.13;1.92;;;;;;;;;;5028490;28;20201;-53
2022/01/07 02:42:16;;;;;;;2.42;2.10;;;;;;;;;;5036658;28;20206;-53
2022/01/07 02:44:44;;;;;;;2.30;2.10;;;;;;;;;;5036887;28;20205;-53
2022/01/07 02:47:11;;;;;;;2.28;1.80;;;;;;;;;;5033710;28;20199;-53
2022/01/07 02:49:38;;;;;;;2.03;1.88;;;;;;;;;;5017402;28;20202;-53
2022/01/07 02:52:06;;;;;;;1.88;1.77;;;;;;;;;;5017653;28;20217;-53
2022/01/07 02:54:35;;;;;;;1.90;1.80;;;;;;;;;;5018015;28;20482;-53
2022/01/07 02:57:02;;;;;;;2.40;2.20;;;;;;;;;;5027046;28;20234;-53
2022/01/07 02:59:30;;;;;;;2.20;2.00;;;;;;;;;;5044530;28;20217;-53
2022/01/07 03:01:57;;;;;;;1.80;1.70;;;;;;;;;;5039033;28;20545;-53
2022/01/07 03:04:26;;;;;;;2.20;2.00;;;;;;;;;;5037152;28;20206;-53
2022/01/07 03:06:53;;;;;;;1.83;1.73;;;;;;;;;;5036679;28;20213;-53
2022/01/07 03:09:21;;;;;;;1.70;1.60;;;;;;;;;;5036870;28;20213;-53
2022/01/07 03:11:50;;;;;;;1.90;1.80;;;;;;;;;;5037104;28;20216;-53
2022/01/07 03:14:17;;;;;;;1.98;1.77;;;;;;;;;;5037113;28;20206;-53
2022/01/07 03:16:45;;;;;;;1.90;1.80;;;;;;;;;;5036871;28;20237;-53
2022/01/07 03:19:12;;;;;;;1.88;1.77;;;;;;;;;;5017758;28;20289;-53
2022/01/07 03:21:39;;;;;;;2.28;2.08;;;;;;;;;;5017098;28;20206;-53
2022/01/07 03:24:07;;;;;;;2.53;1.88;;;;;;;;;;5017431;28;20217;-53
2022/01/07 03:26:34;;;;;;;1.80;1.70;;;;;;;;;;5016642;28;20202;-53
2022/01/07 03:29:03;;;;;;;2.00;1.80;;;;;;;;;;5032216;28;20232;-53
2022/01/07 03:31:30;;;;;;;1.95;1.80;;;;;;;;;;5036908;28;20206;-54
2022/01/07 03:33:58;;;;;;;1.80;1.65;;;;;;;;;;5036916;28;20217;-53
2022/01/07 03:36:25;;;;;;;2.17;1.80;;;;;;;;;;5036400;28;20249;-53
2022/01/07 03:38:53;;;;;;;2.05;1.65;;;;;;;;;;5021184;28;20583;-53
2022/01/07 03:41:20;;;;;;;2.15;1.95;;;;;;;;;;5015991;28;20249;-53
2022/01/07 03:43:47;;;;;;;1.80;1.63;;;;;;;;;;5016233;28;20337;-53
2022/01/07 03:46:16;;;;;;;2.13;1.88;;;;;;;;;;5018530;28;20464;-53
2022/01/07 03:48:43;;;;;;;1.90;1.80;;;;;;;;;;5033198;28;20225;-53
2022/01/07 03:51:11;;;;;;;1.85;1.67;;;;;;;;;;5039937;28;20217;-53
2022/01/07 03:53:39;;;;;;;1.80;1.70;;;;;;;;;;5039694;28;20490;-53
2022/01/07 03:56:06;;;;;;;1.77;1.67;;;;;;;;;;5039726;28;20222;-53
2022/01/07 03:58:36;;;;;;;2.20;2.00;;;;;;;;;;5029784;28;20490;-53
2022/01/07 04:01:06;;;;;;;2.28;2.08;;;;;;;;;;5020478;28;20210;-53
2022/01/07 04:03:35;;;;;;;2.20;2.00;;;;;;;;;;5019972;28;20217;-53
2022/01/07 04:06:02;;;;;;;1.92;1.83;;;;;;;;;;5019933;28;20210;-53
2022/01/07 04:08:30;;;;;;;1.90;1.80;;;;;;;;;;5028487;28;20202;-53
2022/01/07 04:10:58;;;;;;;1.88;1.77;;;;;;;;;;5039427;28;20267;-54
2022/01/07 04:13:25;;;;;;;2.05;1.85;;;;;;;;;;5039893;28;20558;-54
2022/01/07 04:15:52;;;;;;;2.13;2.00;;;;;;;;;;5039731;28;20210;-53
2022/01/07 04:18:19;;;;;;;1.95;1.83;;;;;;;;;;5031624;28;20686;-53
2022/01/07 04:20:49;;;;;;;2.05;1.95;;;;;;;;;;5019434;28;20211;-54
2022/01/07 04:23:16;;;;;;;2.20;2.00;;;;;;;;;;5019529;28;20275;-53
2022/01/07 04:25:44;;;;;;;1.80;1.70;;;;;;;;;;5019630;28;20221;-54
2022/01/07 04:28:11;;;;;;;1.80;1.70;;;;;;;;;;5025157;28;20205;-54
2022/01/07 04:30:39;;;;;;;2.22;2.03;;;;;;;;;;5039108;28;20225;-54
2022/01/07 04:33:08;;;;;;;1.70;1.60;;;;;;;;;;5039453;28;20202;-53
2022/01/07 04:35:36;;;;;;;1.85;1.75;;;;;;;;;;5038826;28;20216;-54
2022/01/07 04:38:05;;;;;;;1.90;1.70;;;;;;;;;;5034128;28;20222;-53
2022/01/07 04:40:33;;;;;;;1.80;1.70;;;;;;;;;;5018869;28;20210;-53
2022/01/07 04:43:01;;;;;;;1.70;1.60;;;;;;;;;;5019026;28;20207;-53
2022/01/07 04:45:28;;;;;;;2.10;1.60;;;;;;;;;;5019744;28;20210;-53
2022/01/07 04:47:56;;;;;;;1.98;1.80;;;;;;;;;;5022183;28;20204;-53
2022/01/07 04:50:23;;;;;;;1.80;1.70;;;;;;;;;;5038610;28;20205;-53
2022/01/07 04:52:51;;;;;;;1.90;1.80;;;;;;;;;;5038866;28;20205;-54
2022/01/07 04:55:21;;;;;;;1.85;1.65;;;;;;;;;;5039136;28;20206;-53
2022/01/07 04:57:49;;;;;;;1.95;1.80;;;;;;;;;;5035546;28;20236;-53
2022/01/07 05:00:17;;;;;;;1.80;1.70;;;;;;;;;;5019003;28;20215;-53
2022/01/07 05:02:45;;;;;;;1.50;1.40;;;;;;;;;;5018941;28;20211;-53
2022/01/07 05:05:12;;;;;;;2.28;1.70;;;;;;;;;;5019216;28;20482;-54
2022/01/07 05:07:40;;;;;;;1.70;1.60;;;;;;;;;;5019815;28;20203;-54
2022/01/07 05:10:08;;;;;;;1.85;1.75;;;;;;;;;;5038519;28;20205;-53
2022/01/07 05:12:37;;;;;;;1.80;1.70;;;;;;;;;;5038667;28;20205;-53
2022/01/07 05:15:06;;;;;;;1.90;1.70;;;;;;;;;;5038444;28;20206;-53
2022/01/07 05:17:33;;;;;;;1.70;1.60;;;;;;;;;;5038313;28;20229;-54
2022/01/07 05:20:01;;;;;;;1.67;1.52;;;;;;;;;;5037353;28;20208;-54
2022/01/07 05:22:29;;;;;;;1.85;1.75;;;;;;;;;;5044816;28;20213;-54
2022/01/07 05:24:56;;;;;;;1.65;1.55;;;;;;;;;;5046302;28;20201;-54
2022/01/07 05:27:23;;;;;;;1.63;1.52;;;;;;;;;;5042594;28;20202;-54
2022/01/07 05:29:52;;;;;;;1.70;1.60;;;;;;;;;;5020571;28;20232;-54
2022/01/07 05:32:20;;;;;;;1.52;1.42;;;;;;;;;;5018273;28;20505;-54
2022/01/07 05:34:47;;;;;;;1.77;1.67;;;;;;;;;;5017171;28;20545;-53
2022/01/07 05:37:14;;;;;;;1.83;1.58;;;;;;;;;;5017009;28;20230;-53
2022/01/07 05:39:42;;;;;;;1.50;1.40;;;;;;;;;;5033806;28;20202;-54
2022/01/07 05:42:10;;;;;;;1.58;1.40;;;;;;;;;;5037248;28;20205;-54
2022/01/07 05:44:37;;;;;;;1.70;1.60;;;;;;;;;;5037005;28;20206;-53
2022/01/07 05:47:06;;;;;;;1.98;1.50;;;;;;;;;;5037205;28;20210;-53
2022/01/07 05:49:33;;;;;;;1.60;1.50;;;;;;;;;;5021483;28;20489;-53
2022/01/07 05:52:01;;;;;;;2.00;1.70;;;;;;;;;;5016520;28;20206;-53
2022/01/07 05:54:29;;;;;;;1.50;1.40;;;;;;;;;;5015678;28;20210;-53
2022/01/07 05:56:56;;;;;;;1.50;1.40;;;;;;;;;;5016039;28;20514;-53
2022/01/07 05:59:23;;;;;;;1.55;1.45;;;;;;;;;;5029024;28;20217;-54
2022/01/07 06:01:51;;;;;;;1.70;1.60;;;;;;;;;;5035606;28;20217;-53
2022/01/07 06:04:19;;;;;;;1.70;1.42;;;;;;;;;;5036130;28;20209;-54
2022/01/07 06:06:46;;;;;;;1.60;1.50;;;;;;;;;;5035327;28;20201;-53
2022/01/07 06:09:14;;;;;;;1.58;1.48;;;;;;;;;;5022525;28;20685;-53
2022/01/07 06:11:41;;;;;;;1.83;1.73;;;;;;;;;;5015405;28;20208;-53
2022/01/07 06:14:09;;;;;;;1.73;1.60;;;;;;;;;;5015583;28;20203;-53
2022/01/07 06:16:36;;;;;;;1.50;1.40;;;;;;;;;;5034181;28;20300;-53
2022/01/07 06:19:05;;;;;;;1.77;1.40;;;;;;;;;;5024428;28;20218;-53
2022/01/07 06:21:34;;;;;;;1.95;1.60;;;;;;;;;;5015634;28;20505;-53
2022/01/07 06:24:02;;;;;;;1.70;1.60;;;;;;;;;;5015576;28;20229;-53
2022/01/07 06:26:29;;;;;;;1.70;1.60;;;;;;;;;;5014394;28;20230;-53
2022/01/07 06:28:56;;;;;;;1.52;1.42;;;;;;;;;;5023036;28;20194;-53
2022/01/07 06:31:24;;;;;;;1.70;1.60;;;;;;;;;;5034143;28;20210;-53
2022/01/07 06:33:51;;;;;;;1.50;1.40;;;;;;;;;;5033676;28;20206;-53
2022/01/07 06:36:18;;;;;;;2.25;1.48;;;;;;;;;;5034087;28;20249;-54
2022/01/07 06:38:47;;;;;;;1.63;1.52;;;;;;;;;;5027408;28;20241;-53
2022/01/07 06:41:14;;;;;;;1.58;1.48;;;;;;;;;;5014364;28;20198;-53
2022/01/07 06:43:43;;;;;;;1.60;1.50;;;;;;;;;;5015275;28;20285;-53
2022/01/07 06:46:11;;;;;;;1.80;1.70;;;;;;;;;;5015524;28;20206;-53
2022/01/07 06:48:39;;;;;;;1.95;1.80;;;;;;;;;;5020893;28;20612;-54
2022/01/07 06:51:06;;;;;;;1.70;1.60;;;;;;;;;;5035650;28;20213;-53
2022/01/07 06:53:34;;;;;;;1.90;1.60;;;;;;;;;;5035181;28;20212;-54
2022/01/07 06:56:03;;;;;;;2.10;1.50;;;;;;;;;;5035306;28;20210;-53
2022/01/07 06:58:31;;;;;;;1.52;1.42;;;;;;;;;;5030852;28;20219;-54
2022/01/07 07:00:58;;;;;;;2.10;1.67;;;;;;;;;;5015708;28;20230;-53
2022/01/07 07:03:25;;;;;;;1.85;1.60;;;;;;;;;;5015612;28;20202;-53
2022/01/07 07:05:53;;;;;;;1.83;1.70;;;;;;;;;;5016364;28;20508;-53
2022/01/07 07:08:20;;;;;;;1.70;1.58;;;;;;;;;;5017599;28;20727;-53
2022/01/07 07:10:49;;;;;;;2.17;1.58;;;;;;;;;;5034956;28;20198;-53
2022/01/07 07:13:17;;;;;;;2.05;1.77;;;;;;;;;;5034595;28;20780;-53
2022/01/07 07:15:45;;;;;;;1.75;1.65;;;;;;;;;;5034875;28;20210;-53
2022/01/07 07:18:14;;;;;;;2.00;1.85;;;;;;;;;;5034321;28;20225;-53
2022/01/07 07:20:41;;;;;;;1.83;1.70;;;;;;;;;;5036063;28;20237;-54
2022/01/07 07:23:08;;;;;;;1.98;1.83;;;;;;;;;;5038091;28;20205;-53
2022/01/07 07:25:36;;;;;;;2.60;1.60;;;;;;;;;;5038105;28;20216;-54
2022/01/07 07:28:03;;;;;;;2.00;1.80;;;;;;;;;;5038194;28;20597;-53
2022/01/07 07:30:36;;;;;;;1.80;1.70;;;;;;;;;;5019256;28;20210;-53
2022/01/07 07:33:29;;;;;;;1.88;1.67;;;;;;;;;;5018172;28;20719;-53
2022/01/07 07:38:53;;;;;;;2.30;2.00;;;;;;;;;;5003821;28;20389;-53
2022/01/07 07:41:20;;;;;;;2.13;1.90;;;;;;;;;;5017704;28;20210;-53
2022/01/07 07:43:49;;;;;;;2.03;1.83;;;;;;;;;;5018939;28;20210;-54
2022/01/07 07:46:18;;;;;;;1.80;1.70;;;;;;;;;;5017945;28;20210;-53
2022/01/07 07:48:46;;;;;;;1.90;1.63;;;;;;;;;;5017726;28;20194;-53
2022/01/07 07:51:14;;;;;;;2.10;1.90;;;;;;;;;;5018206;28;20800;-53
2022/01/07 07:53:41;;;;;;;2.13;1.88;;;;;;;;;;5018182;28;20210;-54
2022/01/07 07:56:09;;;;;;;1.80;1.60;;;;;;;;;;5018475;28;20214;-54
2022/01/07 07:58:37;;;;;;;1.70;1.60;;;;;;;;;;5018074;28;20226;-53
2022/01/07 08:01:04;;;;;;;2.17;1.90;;;;;;;;;;5017574;28;20198;-53
2022/01/07 08:03:33;;;;;;;1.83;1.60;;;;;;;;;;5018954;28;20209;-54
2022/01/07 08:06:00;;;;;;;1.70;1.60;;;;;;;;;;5018828;28;20207;-53
2022/01/07 08:08:27;;;;;;;1.50;1.40;;;;;;;;;;5017987;28;20217;-53
2022/01/07 08:10:57;;;;;;;2.47;1.67;;;;;;;;;;5018928;28;20512;-53
2022/01/07 08:13:30;;;;;;;1.60;1.50;;;;;;;;;;5017709;28;20207;-53
2022/01/07 08:16:00;;;;;;;1.85;1.75;;;;;;;;;;5017535;28;20300;-53
2022/01/07 08:18:28;;;;;;;1.80;1.70;;;;;;;;;;5017105;28;20244;-53
2022/01/07 08:20:57;;;;;;;1.80;1.70;;;;;;;;;;5017791;28;20472;-53
2022/01/07 08:23:24;;;;;;;1.80;1.70;;;;;;;;;;5018091;28;20601;-53
2022/01/07 08:25:52;;;;;;;2.70;1.80;;;;;;;;;;5017766;28;20753;-53
2022/01/07 08:28:23;;;;;;;1.75;1.60;;;;;;;;;;5016607;28;20213;-53
2022/01/07 08:31:24;;;;;;;1.75;1.65;;;;;;;;;;5016957;28;20284;-53
2022/01/07 08:36:36;;;;;;;2.15;1.73;;;;;;;;;;5017396;28;20237;-53
2022/01/07 08:39:06;;;;;;;2.50;1.70;;;;;;;;;;5030658;28;20226;-53
2022/01/07 08:41:34;;;;;;;2.08;1.63;;;;;;;;;;5036201;28;20202;-53
2022/01/07 08:44:01;;;;;;;2.08;1.75;;;;;;;;;;5036392;28;20205;-54
2022/01/07 08:46:29;;;;;;;7.82;6.90;;;;;;;;;;5036107;28;20206;-53
2022/01/07 08:48:56;;;;;;;16.52;15.13;;;;;;;;;;5036272;28;20190;-53
2022/01/07 08:51:25;;;;;;;13.95;12.55;;;;;;;;;;5037304;28;20210;-53
2022/01/07 08:53:55;;;;;;;11.50;10.50;;;;;;;;;;5037377;28;20221;-53
2022/01/07 08:56:23;;;;;;;10.40;9.50;;;;;;;;;;5036672;28;20205;-53
2022/01/07 08:58:51;;;;;;;76.53;70.25;;;;;;;;;;5017758;28;20321;-53
2022/01/07 09:01:19;;;;;;;53.33;49.03;;;;;;;;;;5016745;28;20533;-53
2022/01/07 09:03:46;;;;;;;46.92;43.13;;;;;;;;;;5016932;28;20217;-53
2022/01/07 09:06:14;;;;;;;49.03;44.85;;;;;;;;;;5017295;28;20301;-53
2022/01/07 09:08:41;;;;;;;44.45;40.67;;;;;;;;;;5032476;28;20212;-53
2022/01/07 09:11:10;;;;;;;41.42;38.13;;;;;;;;;;5035548;28;20206;-53
2022/01/07 09:13:37;;;;;;;38.50;35.50;;;;;;;;;;5035626;28;20198;-53
2022/01/07 09:16:05;;;;;;;38.05;34.78;;;;;;;;;;5036975;28;20206;-53
2022/01/07 09:18:33;;;;;;;37.83;34.65;;;;;;;;;;5020883;28;20242;-53
2022/01/07 09:21:01;;;;;;;36.63;33.60;;;;;;;;;;5017132;28;20207;-53
2022/01/07 09:23:28;;;;;;;34.47;31.58;;;;;;;;;;5016320;28;20306;-53
2022/01/07 09:25:56;;;;;;;33.50;30.80;;;;;;;;;;5016418;28;20209;-53
2022/01/07 09:28:25;;;;;;;32.10;29.55;;;;;;;;;;5018120;28;20191;-53
2022/01/07 09:30:52;;;;;;;31.88;29.38;;;;;;;;;;5024567;28;20203;-53
2022/01/07 09:33:19;;;;;;;31.60;29.10;;;;;;;;;;5024201;28;20206;-53
2022/01/07 09:35:47;;;;;;;30.48;28.00;;;;;;;;;;5021283;28;20222;-53
2022/01/07 09:38:14;;;;;;;28.02;25.70;;;;;;;;;;5036121;28;20225;-53
2022/01/07 09:40:41;;;;;;;27.02;24.70;;;;;;;;;;5036031;28;20213;-53
2022/01/07 09:43:09;;;;;;;26.20;24.17;;;;;;;;;;5035186;28;20205;-53
2022/01/07 09:45:39;;;;;;;24.85;22.77;;;;;;;;;;5032361;28;20190;-53
2022/01/07 09:48:08;;;;;;;27.50;25.20;;;;;;;;;;5016075;28;20203;-53
2022/01/07 09:50:36;;;;;;;26.42;24.20;;;;;;;;;;5015969;28;20206;-53
2022/01/07 09:53:07;;;;;;;24.55;22.45;;;;;;;;;;5015876;28;20468;-53
2022/01/07 09:55:34;;;;;;;25.05;23.05;;;;;;;;;;5018956;28;20605;-53
2022/01/07 09:58:02;;;;;;;22.42;20.63;;;;;;;;;;5035238;28;20240;-53
2022/01/07 10:00:34;;;;;;;22.85;20.92;;;;;;;;;;5034929;28;20264;-53
2022/01/07 10:03:04;;;;;;;21.90;20.10;;;;;;;;;;5036065;28;20310;-52
2022/01/07 10:05:31;;;;;;;20.70;19.00;;;;;;;;;;5034933;28;20201;-52
2022/01/07 10:08:17;;;;;;;19.73;18.13;;;;;;;;;;5035599;28;20201;-52
2022/01/07 10:10:45;;;;;;;19.33;17.65;;;;;;;;;;5035187;28;20205;-52
2022/01/07 10:13:12;;;;;;;18.73;16.95;;;;;;;;;;5034910;28;20293;-52
2022/01/07 10:15:41;;;;;;;17.30;15.80;;;;;;;;;;5031619;28;20501;-53
2022/01/07 10:18:10;;;;;;;16.90;15.45;;;;;;;;;;5015048;28;20240;-53
2022/01/07 10:20:41;;;;;;;15.52;14.18;;;;;;;;;;5015540;28;20214;-53
2022/01/07 10:23:09;;;;;;;14.57;13.27;;;;;;;;;;5015329;28;20206;-53
2022/01/07 10:25:37;;;;;;;14.93;13.55;;;;;;;;;;5017206;28;20206;-53
2022/01/07 10:28:06;;;;;;;14.48;13.18;;;;;;;;;;5033810;28;20622;-53
2022/01/07 10:30:38;;;;;;;14.00;12.80;;;;;;;;;;5034403;28;20216;-53
2022/01/07 10:33:18;;;;;;;13.55;12.35;;;;;;;;;;5027323;28;20213;-53
2022/01/07 10:35:45;;;;;;;12.77;11.77;;;;;;;;;;5015036;28;20242;-53
2022/01/07 10:38:17;;;;;;;12.38;11.23;;;;;;;;;;5015272;28;20237;-53
2022/01/07 10:40:44;;;;;;;11.57;10.65;;;;;;;;;;5015057;28;20668;-53
2022/01/07 10:43:13;;;;;;;11.07;10.05;;;;;;;;;;5022758;28;20220;-53
2022/01/07 10:45:41;;;;;;;11.10;10.18;;;;;;;;;;5034361;28;20208;-53
2022/01/07 10:48:09;;;;;;;10.75;9.65;;;;;;;;;;5034437;28;20212;-53
2022/01/07 10:50:41;;;;;;;11.18;10.07;;;;;;;;;;5034099;28;20206;-53
2022/01/07 10:53:15;;;;;;;10.00;9.10;;;;;;;;;;5026168;28;20202;-53
2022/01/07 10:55:58;;;;;;;11.15;9.63;;;;;;;;;;5021717;28;20209;-53
2022/01/07 10:58:26;;;;;;;9.70;8.73;;;;;;;;;;5038706;28;20221;-53
2022/01/07 11:00:54;;;;;;;10.45;9.38;;;;;;;;;;5038130;28;20208;-53
2022/01/07 11:03:21;;;;;;;8.88;7.97;;;;;;;;;;5029793;28;20202;-53
2022/01/07 11:05:50;;;;;;;8.82;8.10;;;;;;;;;;5018983;28;20489;-53
2022/01/07 11:08:17;;;;;;;8.80;7.93;;;;;;;;;;5017545;28;20217;-53
2022/01/07 11:10:45;;;;;;;8.13;7.43;;;;;;;;;;5019431;28;20206;-54
2022/01/07 11:13:13;;;;;;;8.20;7.47;;;;;;;;;;5025852;28;20596;-53
2022/01/07 11:15:40;;;;;;;7.28;6.65;;;;;;;;;;5039053;28;20201;-53
2022/01/07 11:18:08;;;;;;;7.13;6.60;;;;;;;;;;5038102;28;20593;-53
2022/01/07 11:20:37;;;;;;;7.15;6.55;;;;;;;;;;5038276;28;20210;-53
2022/01/07 11:23:06;;;;;;;7.18;6.60;;;;;;;;;;5037606;28;20210;-53
2022/01/07 11:25:34;;;;;;;6.47;5.88;;;;;;;;;;5037850;28;20216;-53
2022/01/07 11:28:01;;;;;;;7.32;6.50;;;;;;;;;;5037768;28;20218;-53
2022/01/07 11:30:32;;;;;;;7.80;6.43;;;;;;;;;;5037779;28;20205;-53
2022/01/07 11:32:59;;;;;;;6.60;5.93;;;;;;;;;;5032873;28;20293;-53
2022/01/07 11:35:47;;;;;;;6.72;5.50;;;;;;;;;;5017640;28;20213;-53
2022/01/07 11:38:35;;;;;;;6.13;5.53;;;;;;;;;;5016966;28;20199;-53
2022/01/07 11:41:05;;;;;;;7.32;5.70;;;;;;;;;;5018018;28;20852;-53
2022/01/07 11:43:34;;;;;;;9.18;5.90;;;;;;;;;;5026851;28;20216;-53
2022/01/07 11:46:02;;;;;;;6.90;5.28;;;;;;;;;;5037520;28;20620;-54
2022/01/07 11:48:30;;;;;;;5.00;4.47;;;;;;;;;;5037036;28;20202;-53
2022/01/07 11:51:14;;;;;;;5.28;4.88;;;;;;;;;;5037643;28;20233;-53
2022/01/07 11:54:05;;;;;;;4.97;4.57;;;;;;;;;;5026759;28;20754;-53
2022/01/07 11:56:35;;;;;;;4.90;4.50;;;;;;;;;;5016480;28;20207;-53
2022/01/07 11:59:12;;;;;;;5.05;4.57;;;;;;;;;;5018093;28;20226;-53
2022/01/07 12:01:41;;;;;;;4.97;4.57;;;;;;;;;;5017055;28;20206;-53
2022/01/07 12:04:27;;;;;;;4.55;4.15;;;;;;;;;;5030451;28;20209;-54
2022/01/07 12:06:55;;;;;;;5.57;4.28;;;;;;;;;;5036929;28;20239;-53
2022/01/07 12:09:29;;;;;;;4.28;3.88;;;;;;;;;;5035718;28;20198;-53
2022/01/07 12:12:01;;;;;;;4.15;3.85;;;;;;;;;;5037022;28;20205;-53
2022/01/07 12:14:30;;;;;;;4.55;3.63;;;;;;;;;;5019559;28;20640;-53
2022/01/07 12:16:59;;;;;;;3.90;3.58;;;;;;;;;;5017382;28;20213;-53
2022/01/07 12:19:46;;;;;;;4.20;3.80;;;;;;;;;;5017028;28;20273;-53
2022/01/07 12:22:16;;;;;;;4.18;3.78;;;;;;;;;;5017151;28;20512;-53
2022/01/07 12:24:44;;;;;;;3.60;3.20;;;;;;;;;;5034712;28;20206;-53
2022/01/07 12:27:16;;;;;;;4.22;3.80;;;;;;;;;;5037450;28;20209;-53
2022/01/07 12:29:44;;;;;;;3.70;3.40;;;;;;;;;;5036540;28;20202;-53
2022/01/07 12:32:13;;;;;;;3.50;3.20;;;;;;;;;;5036070;28;20213;-53
2022/01/07 12:34:43;;;;;;;3.60;3.30;;;;;;;;;;5017064;28;20602;-53
2022/01/07 12:37:11;;;;;;;3.35;3.05;;;;;;;;;;5015717;28;20625;-53
2022/01/07 12:39:39;;;;;;;3.28;2.97;;;;;;;;;;5015782;28;20226;-53
2022/01/07 12:42:09;;;;;;;3.42;3.13;;;;;;;;;;5015478;28;20234;-53
2022/01/07 12:44:38;;;;;;;3.90;3.60;;;;;;;;;;5031964;28;20321;-53
2022/01/07 12:47:07;;;;;;;3.83;3.30;;;;;;;;;;5036316;28;20204;-53
2022/01/07 12:49:34;;;;;;;3.60;3.30;;;;;;;;;;5037045;28;20201;-53
2022/01/07 12:52:03;;;;;;;3.35;2.85;;;;;;;;;;5035308;28;20213;-53
2022/01/07 12:54:30;;;;;;;3.20;2.90;;;;;;;;;;5016639;28;20562;-53
2022/01/07 12:56:57;;;;;;;3.45;3.15;;;;;;;;;;5013957;28;20225;-53
2022/01/07 12:59:26;;;;;;;3.40;3.10;;;;;;;;;;5013248;28;20487;-53
2022/01/07 13:01:55;;;;;;;3.20;2.90;;;;;;;;;;5011750;28;20408;-53
2022/01/07 13:04:23;;;;;;;3.00;2.80;;;;;;;;;;5014123;28;20703;-53
2022/01/07 13:06:51;;;;;;;3.33;3.10;;;;;;;;;;5015642;28;20664;-53
2022/01/07 13:09:21;;;;;;;3.20;2.90;;;;;;;;;;5016097;28;20203;-53
2022/01/07 13:11:49;;;;;;;3.03;2.72;;;;;;;;;;5015974;28;20202;-53
2022/01/07 13:14:18;;;;;;;2.92;2.70;;;;;;;;;;5016112;28;20230;-53
2022/01/07 13:16:45;;;;;;;3.13;2.83;;;;;;;;;;5015077;28;20211;-53
2022/01/07 13:19:15;;;;;;;2.75;2.55;;;;;;;;;;5013738;28;20252;-53
2022/01/07 13:21:43;;;;;;;3.00;2.70;;;;;;;;;;5015806;28;20597;-53
2022/01/07 13:24:13;;;;;;;2.70;2.50;;;;;;;;;;5015988;28;20517;-53
2022/01/07 13:26:43;;;;;;;2.92;2.65;;;;;;;;;;5016592;28;20207;-53
2022/01/07 13:29:17;;;;;;;2.53;2.33;;;;;;;;;;5022879;28;20266;-53
2022/01/07 13:31:46;;;;;;;2.63;2.42;;;;;;;;;;5022905;28;20206;-53
2022/01/07 13:34:22;;;;;;;2.60;2.40;;;;;;;;;;5016566;28;20273;-53
2022/01/07 13:36:49;;;;;;;2.63;2.40;;;;;;;;;;5015555;28;20238;-53
2022/01/07 13:39:18;;;;;;;2.83;2.63;;;;;;;;;;5015677;28;20249;-53
2022/01/07 13:41:55;;;;;;;2.47;2.28;;;;;;;;;;5016660;28;20233;-53
2022/01/07 13:44:23;;;;;;;2.60;2.40;;;;;;;;;;5014899;28;20221;-53
2022/01/07 13:46:51;;;;;;;2.22;1.92;;;;;;;;;;5015324;28;20233;-53
2022/01/07 13:49:19;;;;;;;2.78;2.45;;;;;;;;;;5015649;28;20244;-53
2022/01/07 13:51:56;;;;;;;4.75;2.60;;;;;;;;;;5015946;28;20206;-53
2022/01/07 13:54:25;;;;;;;2.55;2.35;;;;;;;;;;5014657;28;20206;-53
2022/01/07 13:57:00;;;;;;;3.72;2.70;;;;;;;;;;5015319;28;20229;-53
2022/01/07 13:59:28;;;;;;;3.67;2.55;;;;;;;;;;5015245;28;20222;-54
2022/01/07 14:01:56;;;;;;;2.80;2.58;;;;;;;;;;5014983;28;20618;-53
2022/01/07 14:04:39;;;;;;;3.22;2.55;;;;;;;;;;5015486;28;20214;-53
2022/01/07 14:10:13;;;;;;;3.60;2.67;;;;;;;;;;5133624;27;20832;-53
2022/01/07 14:12:46;;;;;;;2.70;2.42;;;;;;;;;;5132827;27;20202;-53
2022/01/07 14:15:14;;;;;;;2.95;2.63;;;;;;;;;;5133687;27;20205;-53
2022/01/07 14:17:42;;;;;;;2.75;2.50;;;;;;;;;;5132797;27;20208;-53
2022/01/07 14:20:11;;;;;;;4.30;3.17;;;;;;;;;;5132781;27;20203;-53
2022/01/07 14:22:42;;;;;;;4.30;2.92;;;;;;;;;;5131762;27;20205;-53
2022/01/07 14:25:09;;;;;;;3.75;2.80;;;;;;;;;;5132960;27;20565;-53
2022/01/07 14:27:39;;;;;;;3.00;2.70;;;;;;;;;;5133015;27;20769;-53
2022/01/07 14:30:08;;;;;;;4.10;3.08;;;;;;;;;;5133092;27;20202;-53
2022/01/07 14:32:35;;;;;;;4.25;3.42;;;;;;;;;;5131552;27;20199;-53
2022/01/07 14:35:03;;;;;;;4.63;3.03;;;;;;;;;;5132088;27;20202;-53
2022/01/07 14:37:31;;;;;;;3.15;2.85;;;;;;;;;;5133404;27;20207;-53
2022/01/07 14:39:59;;;;;;;3.50;2.80;;;;;;;;;;5132586;27;20198;-54
2022/01/07 14:42:27;;;;;;;4.10;3.10;;;;;;;;;;5132319;27;20776;-53
2022/01/07 14:44:56;;;;;;;3.63;2.80;;;;;;;;;;5132134;27;20210;-53
2022/01/07 14:47:24;;;;;;;3.78;2.67;;;;;;;;;;5132214;27;20194;-53
2022/01/07 14:49:52;;;;;;;4.57;2.90;;;;;;;;;;5132682;27;20226;-53
2022/01/07 14:52:20;;;;;;;4.03;3.63;;;;;;;;;;5132926;27;20221;-54
2022/01/07 14:54:48;;;;;;;5.63;4.80;;;;;;;;;;5133755;27;20487;-53
2022/01/07 14:57:16;;;;;;;5.93;5.40;;;;;;;;;;5131951;27;20593;-53